KVTN/VTN METAR and TAF weather

Enter ICAO airport designator
Station Type Date Time Source
KVTN METAR 2022/01/25 03:52 UTC NOAA

KVTN 250352Z AUTO 00000KT 10SM OVC025 M06/M11 A3009 RMK AO2 SLP218 T10611106 PWINO FZRANO


Station Type Date Time Source
KVTN Decoded METAR 2022/01/25 03:52 UTC NOAA

MILLER FIELD - VALENTINE, NE, NE, United States (KVTN) 42-52N 100-33W 788M
Jan 24, 2022 - 10:52 PM EST / 2022.01.25 0352 UTC
Wind: Calm:0
Visibility: 10 mile(s):0
Sky conditions: overcast
Temperature: 21.0 F (-6.1 C)
Dew Point: 12.9 F (-10.6 C)
Relative Humidity: 70%
Pressure (altimeter): 30.09 in. Hg (1018 hPa)
ob: KVTN 250352Z AUTO 00000KT 10SM OVC025 M06/M11 A3009 RMK AO2 SLP218 T10611106 PWINO FZRANO
cycle: 4

Station Type Date Time Source
KVTN TAF 2022/01/24 22:54 UTC NOAA

TAF
AMD KVTN 242153Z 2422/2518 03012KT P6SM VCSH BKN012 OVC025
FM250200 03006KT P6SM OVC035
FM250700 01004KT P6SM OVC020

Example: see airport list